< < Back
Terminal Aerodrome Forecast


Current Version              Previous Versions:   1  2  3  4  5  6  7  8  9  

Terminal Aerodrome Forecast

797
FTUS44 KMRX 041908 AAA
TAFCHA
TAF AMD
KCHA 041908Z 0419/0518 22007KT P6SM VCTS SCT025CB BKN100
     FM050000 20004KT P6SM VCSH SCT025 BKN060
     FM050600 VRB03KT 5SM -SHRA BR SCT015 OVC025
     FM051000 18003KT P6SM VCSH SCT009 OVC015
     FM051500 20006KT P6SM VCSH SCT015 BKN025=

Latest METAR

980
SAUS80 KWBC 050400 RRA
MTRCHA
METAR KCHA 050353Z 23004KT 4SM -RA BR SCT021 BKN035 BKN050 OVC250 22/21
A3005 RMK AO2 RAB01 SLP167 LAST P0017 T02220206


USA.gov is the U.S. government's official web portal to all federal, state and local government web resources and services.